Terminal Aerodrome Forecast
Issued by NWS Sterling, VA

Home | Current Version | Previous Version | Text Only | Print | Product List | Glossary On
Versions: 1 2 3 4 5 6 7 8 9 10 11 12 13 14 15 16 17 18
000
FTUS41 KLWX 031729
TAFCHO
TAF
KCHO 031729Z 0318/0418 14004KT P6SM BKN045 BKN050
     FM032200 12004KT P6SM -SHRA OVC040
     FM040100 09004KT 3SM -SHRA OVC035
     FM040400 11004KT 6SM -SHRA OVC020
     FM040600 VRB03KT 6SM -SHRA OVC008
     FM041300 25004KT 4SM -SHRA OVC030=

USA.gov is the U.S. government's official web portal to all federal, state and local government web resources and services.